Airfield :
LOGIN :

Register | Disclaimer

   EN    FR    IT 

 










Legend :    VFR   Marginal VFR   IFR   Intensive IFR   Very Intensive IFR
Visi :
Ceiling :
>= 8 km
>= 3000ft
5 to 8 km
1000 to 3000 ft
1500m to 5 km
500 to 1000 ft
800 to 1500m
200 to 500 ft
< 800m
< 200 ft
Symbols :   Thunderstorms  Fog  Heavy snow  Heavy precipitations  Wind > 20 kt
SIGMETs :     Misc.  Thunderstorms  Icing  Turbulence  Mountain Waves  Volcanic Ashes






- Airport Elevation : 72 ft
- IATA code : UDE


EHVK - Volkel Airbase

CURRENT METAR :
  • 290630Z AUTO 23015KT 200V260 9999 BKN018 BKN070 OVC078 16/12 Q1010 WHT BECMG 24015G25KT

EXPIRED METARs :
  • 290605Z AUTO 23013KT 180V260 9999 BKN074 BKN082 16/12 Q1010 BLU BECMG 24015G25KT
  • 290555Z AUTO 23013KT 200V260 9999 BKN079 OVC085 15/12 Q1009 BLU
  • 290525Z AUTO 23013KT 200V270 9999 OVC082 15/12 Q1009 BLU
  • 290455Z AUTO 23015KT 190V270 9999 FEW072 SCT077 BKN084 15/12 Q1009 BLU
  • 290425Z AUTO 23013KT 200V260 9999 SCT079 SCT086 BKN092 15/12 Q1009 BLU
  • 290355Z AUTO 23011KT 9999 BKN250 14/11 Q1009 BLU

TAF TAF EHVK
Valid from the 29 at 05:00 until the 29 at 17:00 UTC


290415Z 2905/2917 22010KT CAVOK
BECMG 2906/2908 24013G23KT
TEMPO 2909/2917 SCT020CB BKN030



MET'MAP, your aeronautical weather chart ! - Copyright ORBIFLY December 2007 - Disclaimer

ORBIFLY MET'MAP TEAM :

Programming & Development : Alexandra Zaïnal
Concept & original design : Baudouin d'Aumeries
Assistance for programming : Marc-Olivier Méhu
Technical & hardware support : Manuel Goepfert

Contact : metmap@orbifly.com




SOURCES & CREDITS :

   NOAA